createdAt,value
2019-04-26T00:00:33.839Z,14.00
2019-04-26T00:03:12.771Z,14.00
2019-04-26T00:05:50.044Z,14.00
2019-04-26T00:08:27.326Z,14.00
2019-04-26T00:11:12.359Z,14.10
2019-04-26T00:14:08.115Z,14.10
2019-04-26T00:16:56.537Z,14.10
2019-04-26T00:19:34.135Z,14.20
2019-04-26T00:22:12.924Z,14.20
2019-04-26T00:24:50.707Z,14.20
2019-04-26T00:27:27.934Z,14.20
2019-04-26T00:30:06.188Z,14.20
2019-04-26T00:32:43.429Z,14.10
2019-04-26T00:35:22.150Z,14.10
2019-04-26T00:37:59.538Z,14.10
2019-04-26T00:40:36.817Z,14.10
2019-04-26T00:43:14.292Z,14.00
2019-04-26T00:45:52.011Z,14.00
2019-04-26T00:48:29.310Z,14.00
2019-04-26T00:51:06.549Z,13.90
2019-04-26T00:53:43.873Z,13.90
2019-04-26T00:56:22.170Z,13.90
2019-04-26T00:58:59.618Z,13.90
2019-04-26T01:01:38.545Z,13.90
2019-04-26T01:04:18.773Z,13.80
2019-04-26T01:06:57.706Z,13.80
2019-04-26T01:09:35.078Z,13.80
2019-04-26T01:12:12.353Z,13.80
2019-04-26T01:14:52.242Z,13.70
2019-04-26T01:17:36.778Z,13.70
2019-04-26T01:20:14.025Z,13.70
2019-04-26T01:22:51.404Z,13.60
2019-04-26T01:25:47.122Z,13.60
2019-04-26T01:28:36.600Z,13.60
2019-04-26T01:31:14.193Z,13.50
2019-04-26T01:33:53.464Z,13.50
2019-04-26T01:36:33.966Z,13.40
2019-04-26T01:39:16.139Z,13.40
2019-04-26T01:41:57.775Z,13.40
2019-04-26T01:44:56.140Z,13.40
2019-04-26T01:47:33.437Z,13.30
2019-04-26T01:50:10.684Z,13.30
2019-04-26T01:52:47.947Z,13.20
2019-04-26T01:55:25.274Z,13.20
2019-04-26T01:58:02.774Z,13.10
2019-04-26T02:00:44.364Z,13.10
2019-04-26T02:03:23.914Z,13.10
2019-04-26T02:06:01.116Z,13.10
2019-04-26T02:08:38.372Z,13.10
2019-04-26T02:11:15.720Z,13.10
2019-04-26T02:13:52.979Z,13.10
2019-04-26T02:16:31.135Z,13.10
2019-04-26T02:19:08.506Z,13.10
2019-04-26T02:22:02.819Z,13.10
2019-04-26T02:24:41.690Z,13.10
2019-04-26T02:27:20.603Z,13.10
2019-04-26T02:29:58.088Z,13.00
2019-04-26T02:32:36.953Z,13.10
2019-04-26T02:35:14.464Z,13.00
2019-04-26T02:37:51.748Z,13.00
2019-04-26T02:40:35.066Z,13.00
2019-04-26T02:43:12.936Z,13.00
2019-04-26T02:45:54.464Z,12.90
2019-04-26T02:48:52.678Z,12.90
2019-04-26T02:51:34.589Z,12.80
2019-04-26T02:54:23.281Z,12.80
2019-04-26T02:57:01.152Z,12.70
2019-04-26T02:59:40.732Z,12.60
2019-04-26T03:02:22.848Z,12.50
2019-04-26T03:05:01.912Z,12.50
2019-04-26T03:07:42.831Z,12.40
2019-04-26T03:10:21.170Z,12.40
2019-04-26T03:13:00.223Z,12.40
2019-04-26T03:15:57.777Z,12.40
2019-04-26T03:18:43.632Z,12.40
2019-04-26T03:21:34.523Z,12.40
2019-04-26T03:24:35.083Z,12.40
2019-04-26T03:27:34.717Z,12.40
2019-04-26T03:30:24.018Z,12.40
2019-04-26T03:33:10.702Z,12.40
2019-04-26T03:36:01.803Z,12.40
2019-04-26T03:38:56.341Z,12.30
2019-04-26T03:41:44.727Z,12.20
2019-04-26T03:44:35.114Z,12.20
2019-04-26T03:47:19.494Z,12.10
2019-04-26T03:50:06.188Z,12.10
2019-04-26T03:52:59.091Z,12.20
2019-04-26T03:55:43.312Z,12.20
2019-04-26T03:58:58.387Z,12.30
2019-04-26T04:01:39.586Z,12.40
2019-04-26T04:04:37.109Z,12.40
2019-04-26T04:07:14.842Z,12.60
2019-04-26T04:10:04.664Z,12.60
2019-04-26T04:12:51.547Z,12.70
2019-04-26T04:15:42.569Z,12.80
2019-04-26T04:18:27.091Z,12.90
2019-04-26T04:21:38.640Z,13.00
2019-04-26T04:24:16.108Z,13.10
2019-04-26T04:27:14.703Z,13.30
2019-04-26T04:29:57.987Z,13.30
2019-04-26T04:32:51.950Z,13.40
2019-04-26T04:35:29.049Z,13.50
2019-04-26T04:38:26.991Z,13.60
2019-04-26T04:41:30.146Z,13.60
2019-04-26T04:44:15.169Z,13.70
2019-04-26T04:47:23.023Z,13.80
2019-04-26T04:50:00.603Z,13.80
2019-04-26T04:52:50.242Z,13.90
2019-04-26T04:55:42.845Z,13.90
2019-04-26T04:58:31.652Z,14.00
2019-04-26T05:01:31.869Z,14.10
2019-04-26T05:04:15.709Z,14.10
2019-04-26T05:07:13.230Z,14.10
2019-04-26T05:10:17.689Z,14.20
2019-04-26T05:12:58.014Z,14.30
2019-04-26T05:16:22.896Z,14.40
2019-04-26T05:19:27.652Z,14.40
2019-04-26T05:22:11.695Z,14.50
2019-04-26T05:25:43.765Z,14.60
2019-04-26T05:28:34.844Z,14.70
2019-04-26T05:31:34.776Z,14.80
2019-04-26T05:34:25.584Z,14.90
2019-04-26T05:37:08.839Z,15.10
2019-04-26T05:39:57.758Z,15.20
2019-04-26T05:43:14.749Z,15.30
2019-04-26T05:46:05.776Z,15.50
2019-04-26T05:49:05.319Z,15.70
2019-04-26T05:52:11.186Z,15.90
2019-04-26T05:55:21.869Z,16.10
2019-04-26T05:58:17.478Z,16.30
2019-04-26T06:01:30.835Z,16.40
2019-04-26T06:04:22.007Z,16.60
2019-04-26T06:07:10.225Z,16.70
2019-04-26T06:10:00.503Z,16.90
2019-04-26T06:12:57.342Z,17.00
2019-04-26T06:16:00.152Z,17.10
2019-04-26T06:19:03.033Z,17.20
2019-04-26T06:21:53.721Z,17.30
2019-04-26T06:24:50.131Z,17.40
2019-04-26T06:27:35.120Z,17.50
2019-04-26T06:30:18.606Z,17.60
2019-04-26T06:33:05.568Z,17.70
2019-04-26T06:35:42.706Z,17.80
2019-04-26T06:39:12.125Z,17.90
2019-04-26T06:42:44.274Z,18.00
2019-04-26T06:45:35.154Z,18.20
2019-04-26T06:48:21.446Z,18.30
2019-04-26T06:51:04.990Z,18.40
2019-04-26T06:53:58.600Z,18.50
2019-04-26T06:57:11.557Z,18.70
2019-04-26T06:59:57.374Z,18.80
2019-04-26T07:02:49.259Z,19.00
2019-04-26T07:05:28.367Z,19.20
2019-04-26T07:08:28.552Z,19.50
2019-04-26T07:11:33.745Z,19.80
2019-04-26T07:14:37.386Z,20.30
2019-04-26T07:17:22.078Z,21.30
2019-04-26T07:20:29.767Z,22.50
2019-04-26T07:23:39.778Z,23.60
2019-04-26T07:26:34.697Z,24.90
2019-04-26T07:29:24.343Z,26.00
2019-04-26T07:32:12.183Z,26.90
2019-04-26T07:35:01.106Z,27.70
2019-04-26T07:38:03.121Z,28.30
2019-04-26T07:41:05.128Z,28.80
2019-04-26T07:44:07.730Z,29.30
2019-04-26T07:46:51.597Z,29.80
2019-04-26T07:50:05.643Z,30.20
2019-04-26T07:53:16.140Z,30.50
2019-04-26T07:56:14.735Z,30.90
2019-04-26T07:59:15.007Z,31.20
2019-04-26T08:02:33.847Z,31.40
2019-04-26T08:05:16.632Z,31.70
2019-04-26T08:07:56.994Z,31.90
2019-04-26T08:10:37.250Z,32.10
2019-04-26T08:13:16.501Z,32.20
2019-04-26T08:16:21.361Z,32.20
2019-04-26T08:19:05.323Z,32.30
2019-04-26T08:21:48.184Z,32.50
2019-04-26T08:24:28.171Z,32.60
2019-04-26T08:27:18.648Z,32.60
2019-04-26T08:30:22.924Z,32.60
2019-04-26T08:33:07.479Z,32.60
2019-04-26T08:35:44.361Z,32.60
2019-04-26T08:38:22.891Z,32.60
2019-04-26T08:41:04.793Z,32.60
2019-04-26T08:43:44.578Z,32.70
2019-04-26T08:46:36.206Z,32.80
2019-04-26T08:49:22.615Z,32.70
2019-04-26T08:52:00.250Z,32.90
2019-04-26T08:54:39.444Z,33.00
2019-04-26T08:57:17.566Z,33.00
2019-04-26T08:59:56.883Z,32.90
2019-04-26T09:02:45.092Z,32.70
2019-04-26T09:05:31.229Z,32.40
2019-04-26T09:08:08.878Z,32.00
2019-04-26T09:10:48.532Z,31.50
2019-04-26T09:13:26.653Z,31.00
2019-04-26T09:16:09.975Z,30.50
2019-04-26T09:18:52.348Z,30.00
2019-04-26T09:21:40.036Z,29.60
2019-04-26T09:24:28.657Z,29.30
2019-04-26T09:27:17.092Z,29.00
2019-04-26T09:30:08.171Z,28.80
2019-04-26T09:32:47.316Z,28.70
2019-04-26T09:35:24.985Z,28.50
2019-04-26T09:38:02.635Z,28.40
2019-04-26T09:40:40.231Z,28.40
2019-04-26T09:43:19.375Z,28.30
2019-04-26T09:46:01.677Z,28.30
2019-04-26T09:48:44.188Z,28.30
2019-04-26T09:51:21.928Z,28.30
2019-04-26T09:53:59.410Z,28.30
2019-04-26T09:56:37.356Z,28.30
2019-04-26T09:59:14.869Z,28.30
2019-04-26T10:01:55.443Z,28.30
2019-04-26T10:04:31.570Z,28.30
2019-04-26T10:07:09.529Z,28.30
2019-04-26T10:09:47.029Z,28.30
2019-04-26T10:12:32.364Z,28.30
2019-04-26T10:15:14.464Z,28.40
2019-04-26T10:17:52.502Z,28.40
2019-04-26T10:20:30.023Z,28.40
2019-04-26T10:23:07.688Z,28.50
2019-04-26T10:25:47.310Z,28.50
2019-04-26T10:28:26.956Z,28.60
2019-04-26T10:31:09.575Z,28.60
2019-04-26T10:33:47.743Z,28.60
2019-04-26T10:36:26.317Z,28.70
2019-04-26T10:39:07.227Z,28.70
2019-04-26T10:41:45.165Z,28.80
2019-04-26T10:44:23.251Z,28.80
2019-04-26T10:47:04.388Z,28.80
2019-04-26T10:49:42.867Z,28.80
2019-04-26T10:52:22.220Z,28.80
2019-04-26T10:55:04.606Z,28.80
2019-04-26T10:57:49.908Z,29.00
2019-04-26T11:00:41.735Z,29.00
2019-04-26T11:03:19.902Z,29.10
2019-04-26T11:05:58.083Z,29.20
2019-04-26T11:08:37.606Z,29.30
2019-04-26T11:11:15.739Z,29.40
2019-04-26T11:13:53.620Z,29.50
2019-04-26T11:16:31.357Z,29.60
2019-04-26T11:19:09.008Z,29.70
2019-04-26T11:21:46.847Z,29.80
2019-04-26T11:24:24.717Z,29.90
2019-04-26T11:27:05.313Z,30.00
2019-04-26T11:29:53.078Z,30.00
2019-04-26T11:32:20.671Z,30.10
2019-04-26T11:35:00.498Z,30.10
2019-04-26T11:37:38.082Z,30.20
2019-04-26T11:40:15.818Z,30.10
2019-04-26T11:42:53.579Z,30.10
2019-04-26T11:45:31.118Z,30.10
2019-04-26T11:48:09.411Z,30.00
2019-04-26T11:50:48.228Z,29.80
2019-04-26T11:53:26.455Z,29.70
2019-04-26T11:56:04.685Z,29.70
2019-04-26T11:58:48.128Z,29.70
2019-04-26T12:01:27.803Z,29.80
2019-04-26T12:04:19.723Z,30.00
2019-04-26T12:07:01.500Z,30.20
2019-04-26T12:09:40.710Z,30.40
2019-04-26T12:12:18.506Z,30.60
2019-04-26T12:14:56.075Z,30.70
2019-04-26T12:17:35.160Z,30.80
2019-04-26T12:20:12.955Z,31.00
2019-04-26T12:22:50.490Z,31.10
2019-04-26T12:25:30.856Z,31.10
2019-04-26T12:28:07.400Z,31.20
2019-04-26T12:30:45.185Z,31.20
2019-04-26T12:33:22.757Z,31.30
2019-04-26T12:36:00.275Z,31.40
2019-04-26T12:38:37.797Z,31.50
2019-04-26T12:41:17.258Z,31.60
2019-04-26T12:43:58.944Z,31.60
2019-04-26T12:46:47.246Z,31.60
2019-04-26T12:49:25.405Z,31.50
2019-04-26T12:52:02.966Z,31.30
2019-04-26T12:54:42.959Z,31.10
2019-04-26T12:57:19.686Z,31.00
2019-04-26T12:59:57.615Z,30.90
2019-04-26T13:02:36.375Z,30.80
2019-04-26T13:05:14.493Z,30.90
2019-04-26T13:07:54.823Z,31.00
2019-04-26T13:10:46.098Z,31.00
2019-04-26T13:13:40.903Z,31.10
2019-04-26T13:16:32.195Z,31.30
2019-04-26T13:19:09.767Z,31.30
2019-04-26T13:21:47.242Z,31.40
2019-04-26T13:24:24.805Z,31.40
2019-04-26T13:27:06.047Z,31.40
2019-04-26T13:29:41.508Z,31.40
2019-04-26T13:32:19.017Z,31.40
2019-04-26T13:34:56.576Z,31.30
2019-04-26T13:37:35.673Z,31.30
2019-04-26T13:40:13.372Z,31.30
2019-04-26T13:42:51.470Z,31.30
2019-04-26T13:45:52.643Z,31.30
2019-04-26T13:48:39.168Z,31.30
2019-04-26T13:51:19.460Z,31.30
2019-04-26T13:53:57.729Z,31.30
2019-04-26T13:56:35.918Z,31.30
2019-04-26T13:59:14.511Z,31.30
2019-04-26T14:01:52.072Z,31.40
2019-04-26T14:04:29.575Z,31.40
2019-04-26T14:07:07.142Z,31.40
2019-04-26T14:09:44.639Z,31.40
2019-04-26T14:12:22.213Z,31.40
2019-04-26T14:14:59.691Z,31.40
2019-04-26T14:17:37.257Z,31.40
2019-04-26T14:20:14.782Z,31.40
2019-04-26T14:23:00.005Z,31.30
2019-04-26T14:25:42.855Z,31.20
2019-04-26T14:28:23.732Z,31.20
2019-04-26T14:30:59.722Z,31.00
2019-04-26T14:33:37.308Z,30.90
2019-04-26T14:36:18.722Z,30.80
2019-04-26T14:39:05.650Z,30.70
2019-04-26T14:41:37.161Z,30.60
2019-04-26T14:44:16.068Z,30.60
2019-04-26T14:46:56.778Z,30.60
2019-04-26T14:49:39.555Z,30.60
2019-04-26T14:52:12.167Z,30.60
2019-04-26T14:54:49.705Z,30.60
2019-04-26T14:57:31.432Z,30.60
2019-04-26T15:00:07.906Z,30.60
2019-04-26T15:02:50.130Z,30.50
2019-04-26T15:05:38.150Z,30.40
2019-04-26T15:08:17.298Z,30.30
2019-04-26T15:11:00.953Z,30.20
2019-04-26T15:13:40.304Z,30.00
2019-04-26T15:16:15.122Z,29.90
2019-04-26T15:18:53.059Z,29.80
2019-04-26T15:21:31.728Z,29.90
2019-04-26T15:24:10.357Z,29.90
2019-04-26T15:26:48.474Z,29.90
2019-04-26T15:29:27.216Z,29.90
2019-04-26T15:32:05.446Z,29.90
2019-04-26T15:34:43.261Z,29.80
2019-04-26T15:37:25.041Z,29.90
2019-04-26T15:40:09.526Z,29.80
2019-04-26T15:42:58.927Z,29.70
2019-04-26T15:45:38.711Z,29.50
2019-04-26T15:48:20.258Z,29.40
2019-04-26T15:50:58.213Z,29.30
2019-04-26T15:53:36.045Z,29.20
2019-04-26T15:56:16.734Z,29.10
2019-04-26T15:58:53.015Z,29.00
2019-04-26T16:01:32.647Z,28.80
2019-04-26T16:04:17.359Z,28.70
2019-04-26T16:06:53.107Z,28.50
2019-04-26T16:09:32.484Z,28.40
2019-04-26T16:12:10.559Z,28.30
2019-04-26T16:14:48.375Z,28.10
2019-04-26T16:17:26.203Z,28.00
2019-04-26T16:20:06.377Z,27.90
2019-04-26T16:22:44.176Z,27.70
2019-04-26T16:25:22.962Z,27.60
2019-04-26T16:28:14.782Z,27.50
2019-04-26T16:30:57.014Z,27.30
2019-04-26T16:33:39.501Z,27.20
2019-04-26T16:36:17.374Z,27.00
2019-04-26T16:39:09.425Z,26.80
2019-04-26T16:41:52.389Z,26.60
2019-04-26T16:44:33.344Z,26.40
2019-04-26T16:47:13.113Z,26.30
2019-04-26T16:49:52.287Z,26.10
2019-04-26T16:52:33.735Z,26.00
2019-04-26T16:55:17.909Z,25.80
2019-04-26T16:57:55.596Z,25.60
2019-04-26T17:00:48.258Z,25.50
2019-04-26T17:03:10.212Z,25.40
2019-04-26T17:05:56.777Z,25.20
2019-04-26T17:08:29.537Z,25.10
2019-04-26T17:11:07.325Z,25.00
2019-04-26T17:13:50.596Z,24.90
2019-04-26T17:16:25.803Z,24.80
2019-04-26T17:19:03.695Z,24.60
2019-04-26T17:21:46.117Z,24.50
2019-04-26T17:24:28.996Z,24.40
2019-04-26T17:27:09.714Z,24.20
2019-04-26T17:29:49.683Z,24.10
2019-04-26T17:32:27.570Z,24.00
2019-04-26T17:35:07.575Z,23.90
2019-04-26T17:37:45.624Z,23.70
2019-04-26T17:40:31.637Z,23.60
2019-04-26T17:43:13.382Z,23.50
2019-04-26T17:45:58.538Z,23.40
2019-04-26T17:48:36.531Z,23.30
2019-04-26T17:51:18.829Z,23.10
2019-04-26T17:54:18.855Z,23.10
2019-04-26T17:56:39.437Z,23.00
2019-04-26T17:59:32.696Z,22.80
2019-04-26T18:02:01.574Z,22.80
2019-04-26T18:04:41.328Z,22.60
2019-04-26T18:07:39.829Z,22.50
2019-04-26T18:10:02.434Z,22.50
2019-04-26T18:12:40.983Z,22.40
2019-04-26T18:15:21.984Z,22.30
2019-04-26T18:18:18.223Z,22.20
2019-04-26T18:21:05.173Z,22.10
2019-04-26T18:23:44.698Z,22.00
2019-04-26T18:26:24.443Z,21.90
2019-04-26T18:29:04.578Z,21.90
2019-04-26T18:31:43.852Z,21.80
2019-04-26T18:34:23.181Z,21.70
2019-04-26T18:37:04.235Z,21.60
2019-04-26T18:39:47.066Z,21.50
2019-04-26T18:42:37.690Z,21.50
2019-04-26T18:45:25.593Z,21.40
2019-04-26T18:48:01.407Z,21.30
2019-04-26T18:50:38.357Z,21.20
2019-04-26T18:53:19.673Z,21.10
2019-04-26T18:55:59.415Z,21.00
2019-04-26T18:58:38.233Z,21.00
2019-04-26T19:01:17.823Z,20.90
2019-04-26T19:04:00.272Z,20.80
2019-04-26T19:06:37.952Z,20.80
2019-04-26T19:09:18.993Z,20.70
2019-04-26T19:11:56.970Z,20.60
2019-04-26T19:15:02.960Z,20.60
2019-04-26T19:17:37.708Z,20.40
2019-04-26T19:20:18.026Z,20.30
2019-04-26T19:22:57.805Z,20.20
2019-04-26T19:25:40.868Z,20.10
2019-04-26T19:28:17.699Z,20.00
2019-04-26T19:30:55.957Z,20.00
2019-04-26T19:33:33.935Z,19.90
2019-04-26T19:36:21.860Z,19.80
2019-04-26T19:38:57.379Z,19.80
2019-04-26T19:41:36.535Z,19.70
2019-04-26T19:44:18.516Z,19.70
2019-04-26T19:47:12.329Z,19.60
2019-04-26T19:50:10.180Z,19.60
2019-04-26T19:53:02.854Z,19.50
2019-04-26T19:55:54.960Z,19.30
2019-04-26T19:58:37.372Z,19.30
2019-04-26T20:01:16.590Z,19.10
2019-04-26T20:03:56.508Z,19.10
2019-04-26T20:06:33.974Z,18.90
2019-04-26T20:09:11.935Z,18.90
2019-04-26T20:11:51.348Z,18.80
2019-04-26T20:14:43.538Z,18.70
2019-04-26T20:17:08.142Z,18.50
2019-04-26T20:19:47.703Z,18.40
2019-04-26T20:22:28.275Z,18.30
2019-04-26T20:25:05.238Z,18.20
2019-04-26T20:27:44.724Z,18.10
2019-04-26T20:30:42.233Z,18.00
2019-04-26T20:33:20.065Z,17.90
2019-04-26T20:35:57.353Z,17.80
2019-04-26T20:38:43.659Z,17.70
2019-04-26T20:41:15.430Z,17.70
2019-04-26T20:44:05.043Z,17.60
2019-04-26T20:46:34.498Z,17.50
2019-04-26T20:49:11.333Z,17.50
2019-04-26T20:51:48.750Z,17.40
2019-04-26T20:54:25.879Z,17.30
2019-04-26T20:57:03.027Z,17.20
2019-04-26T20:59:41.623Z,17.20
2019-04-26T21:02:20.791Z,17.20
2019-04-26T21:04:57.730Z,17.10
2019-04-26T21:07:35.219Z,17.10
2019-04-26T21:10:14.563Z,17.00
2019-04-26T21:12:52.244Z,17.00
2019-04-26T21:15:29.957Z,16.90
2019-04-26T21:18:07.099Z,16.90
2019-04-26T21:20:44.271Z,16.80
2019-04-26T21:23:22.263Z,16.80
2019-04-26T21:26:16.296Z,16.80
2019-04-26T21:28:54.429Z,16.80
2019-04-26T21:31:45.476Z,16.70
2019-04-26T21:34:22.377Z,16.70
2019-04-26T21:37:20.575Z,16.70
2019-04-26T21:40:03.969Z,16.70
2019-04-26T21:42:43.315Z,16.60
2019-04-26T21:45:28.476Z,16.70
2019-04-26T21:48:02.664Z,16.80
2019-04-26T21:50:40.139Z,16.90
2019-04-26T21:53:18.700Z,17.00
2019-04-26T21:55:55.858Z,17.10
2019-04-26T21:58:33.743Z,17.10
2019-04-26T22:01:15.650Z,17.20
2019-04-26T22:03:55.454Z,17.30
2019-04-26T22:06:30.923Z,17.30
2019-04-26T22:09:13.645Z,17.40
2019-04-26T22:11:53.950Z,17.40
2019-04-26T22:14:34.206Z,17.40
2019-04-26T22:17:15.430Z,17.40
2019-04-26T22:20:25.628Z,17.50
2019-04-26T22:23:16.359Z,17.50
2019-04-26T22:25:56.008Z,17.40
2019-04-26T22:28:35.974Z,17.40
2019-04-26T22:31:13.318Z,17.30
2019-04-26T22:33:50.593Z,17.30
2019-04-26T22:36:30.854Z,17.20
2019-04-26T22:39:10.652Z,17.10
2019-04-26T22:41:47.821Z,16.90
2019-04-26T22:44:43.477Z,16.90
2019-04-26T22:47:23.897Z,16.70
2019-04-26T22:50:00.904Z,16.60
2019-04-26T22:52:38.077Z,16.50
2019-04-26T22:55:21.613Z,16.40
2019-04-26T22:57:54.124Z,16.30
2019-04-26T23:00:33.158Z,16.30
2019-04-26T23:03:10.838Z,16.10
2019-04-26T23:05:47.985Z,16.00
2019-04-26T23:08:25.226Z,15.80
2019-04-26T23:11:02.564Z,15.70
2019-04-26T23:13:49.687Z,15.60
2019-04-26T23:16:31.578Z,15.50
2019-04-26T23:19:26.976Z,15.40
2019-04-26T23:22:04.532Z,15.30
2019-04-26T23:24:42.779Z,15.20
2019-04-26T23:27:21.486Z,15.10
2019-04-26T23:29:59.334Z,15.00
2019-04-26T23:32:39.954Z,14.80
2019-04-26T23:35:18.613Z,14.70
2019-04-26T23:37:56.531Z,14.70
2019-04-26T23:40:34.526Z,14.60
2019-04-26T23:43:13.009Z,14.50
2019-04-26T23:45:50.234Z,14.40
2019-04-26T23:48:27.349Z,14.40
2019-04-26T23:51:08.258Z,14.30
2019-04-26T23:53:43.338Z,14.20
2019-04-26T23:56:23.529Z,14.10
2019-04-26T23:58:59.342Z,14.00
